Atwood, Colorado
Current Conditions -  °F | °C
As of 2:35 PM on Thursday 23 Oct 2014 (Local Time) from KSTK Reporting Station
Clear Clear  
Wind Chill: 77°   Ceiling: Unl
Heat Index: 77°   Visibility: 10mi
Dew Point: 36°   Wind: 14mph
Humidity: 22%   Direction: 230°SW
Pressure: 30.04"   Gusts: 18mph
Location:  40.55°N, 103.27°W
Report Text: KSTK 232035Z AUTO 23012G16KT 10SM CLR 25/02 A3004 RMK AO2
Loading
Personal Weather Stations






























Interactive Weather Map
Tropical Storm Tracking
New forecast layout! Learn more

10-Day Weather Forecast

Advertisements
Track Severe Weather on mobile